East Harling, United Kingdom
Current Conditions -  °F | °C
As of 12:58 PM on Saturday 25 Oct 2014 (Local Time) from EGUL Reporting Station
Scattered Clouds Scattered Clouds  
Wind Chill: 57°   Ceiling: Unl
Heat Index: 57°   Visibility: 6mi
Dew Point: 56°   Wind: 15mph
Humidity: 96%   Direction: 240°WSW
Pressure: 30.02"   Gusts: NA
Location:  52.44°N, 0.93°E
Report Text: EGUL 251158Z AUTO 24013KT 9999 SCT023 14/13 A3002 RMK AO2 SLP169 70008 T01380131 10142 20072 50000
Loading
Personal Weather Stations






























Interactive Weather Map New forecast layout! Learn more

10-Day Weather Forecast

Advertisements
Track Severe Weather on mobile